Time;durP1;ratioP1;P1;durP2;ratioP2;P2;SDS_P1;SDS_P2;PMS_P1;PMS_P2;Temp;Humidity;BMP_temperature;BMP_pressure;BME280_temperature;BME280_humidity;BME280_pressure;Samples;Min_cycle;Max_cycle;Signal;HPM_P1;HPM_P2
2022/09/15 00:02:17;;;;;;;6.07;2.35;;;14.40;91.90;;;;;;5000591;28;20096;-56
2022/09/15 00:04:42;;;;;;;6.38;2.03;;;14.40;92.00;;;;;;4970262;28;20080;-52
2022/09/15 00:07:10;;;;;;;7.20;1.73;;;14.40;91.90;;;;;;4970600;28;20026;-51
2022/09/15 00:09:38;;;;;;;5.72;2.05;;;14.40;91.90;;;;;;4970273;28;20027;-53
2022/09/15 00:12:04;;;;;;;9.35;2.00;;;14.40;91.90;;;;;;4986043;28;20422;-53
2022/09/15 00:14:29;;;;;;;4.85;2.10;;;14.40;91.90;;;;;;4990656;28;20109;-52
2022/09/15 00:16:55;;;;;;;4.78;1.92;;;14.40;91.90;;;;;;5004935;28;20056;-56
2022/09/15 00:19:23;;;;;;;11.57;2.97;;;14.40;91.90;;;;;;4981120;28;20098;-50
2022/09/15 00:21:49;;;;;;;9.68;2.65;;;14.50;91.90;;;;;;4979206;28;20093;-54
2022/09/15 00:24:14;;;;;;;9.98;2.30;;;14.50;91.90;;;;;;5001194;28;20452;-51
2022/09/15 00:26:40;;;;;;;10.10;2.60;;;14.50;91.90;;;;;;4974775;28;20106;-53
2022/09/15 00:29:09;;;;;;;8.18;2.83;;;14.40;91.90;;;;;;4968876;28;20129;-50
2022/09/15 00:31:35;;;;;;;5.07;1.83;;;14.40;91.90;;;;;;4976885;28;20034;-52
2022/09/15 00:34:05;;;;;;;6.72;2.15;;;14.40;91.80;;;;;;4989498;28;20085;-49
2022/09/15 00:36:30;;;;;;;7.80;1.60;;;14.40;91.80;;;;;;4989460;28;20022;-50
2022/09/15 00:38:57;;;;;;;7.78;2.55;;;14.40;91.80;;;;;;4988435;28;20109;-53
2022/09/15 00:41:24;;;;;;;6.78;2.25;;;14.40;91.80;;;;;;4988809;28;20432;-55
2022/09/15 00:43:52;;;;;;;5.45;2.15;;;14.40;91.70;;;;;;4989697;28;20050;-49
2022/09/15 00:46:39;;;;;;;9.82;2.30;;;14.40;91.80;;;;;;4984525;28;20086;-51
2022/09/15 00:49:16;;;;;;;8.85;1.85;;;14.40;91.70;;;;;;5004928;28;20355;-48
2022/09/15 00:51:49;;;;;;;8.32;1.75;;;14.40;91.70;;;;;;4989644;28;20048;-49
2022/09/15 00:54:24;;;;;;;8.70;1.58;;;14.30;91.30;;;;;;4988340;28;20395;-48
2022/09/15 00:56:53;;;;;;;12.50;2.67;;;14.20;90.90;;;;;;4989456;28;20027;-48
2022/09/15 00:59:23;;;;;;;8.70;2.03;;;14.20;90.50;;;;;;4989734;28;20050;-50
2022/09/15 01:01:54;;;;;;;9.93;2.40;;;14.20;90.20;;;;;;4984680;28;20082;-49
2022/09/15 01:04:23;;;;;;;8.85;2.03;;;14.30;90.00;;;;;;4969491;28;20440;-50
2022/09/15 01:06:53;;;;;;;12.60;2.03;;;14.30;90.10;;;;;;4953326;28;20105;-47
2022/09/15 01:09:24;;;;;;;11.82;1.92;;;14.30;89.80;;;;;;4970322;28;20033;-49
2022/09/15 01:11:50;;;;;;;12.15;2.08;;;14.30;89.80;;;;;;4969246;28;20026;-47
2022/09/15 01:14:16;;;;;;;6.75;2.30;;;14.30;89.70;;;;;;4985387;28;20467;-48
2022/09/15 01:16:44;;;;;;;8.18;1.58;;;14.20;89.40;;;;;;4972128;28;20053;-50
2022/09/15 01:19:47;;;;;;;6.10;1.25;;;14.10;88.70;;;;;;4970572;28;20093;-49
2022/09/15 01:22:53;;;;;;;6.78;1.33;;;14.10;88.50;;;;;;4970812;28;20089;-47
2022/09/15 01:25:34;;;;;;;7.22;1.50;;;14.00;88.10;;;;;;4988936;28;20039;-47
2022/09/15 01:28:33;;;;;;;6.68;1.10;;;14.00;87.60;;;;;;4989700;28;20030;-46
2022/09/15 01:31:14;;;;;;;6.20;1.20;;;13.90;87.10;;;;;;4992091;28;20030;-46
2022/09/15 01:34:04;;;;;;;6.40;1.58;;;13.90;86.80;;;;;;4976824;28;20045;-47
2022/09/15 01:36:46;;;;;;;9.45;2.05;;;14.00;86.80;;;;;;4973799;28;20022;-48
2022/09/15 01:39:23;;;;;;;4.10;1.20;;;14.00;86.70;;;;;;4972807;28;20038;-49
2022/09/15 01:41:53;;;;;;;7.38;0.82;;;14.00;86.50;;;;;;4975868;28;20042;-47
2022/09/15 01:44:45;;;;;;;5.80;1.60;;;14.00;86.80;;;;;;4993006;28;20061;-45
2022/09/15 01:47:15;;;;;;;7.68;1.08;;;14.10;86.70;;;;;;4990257;28;20042;-46
2022/09/15 01:49:45;;;;;;;;;;;14.10;86.20;;;;;;4974044;28;20031;-47
2022/09/15 01:52:18;;;;;;;6.18;1.55;;;14.10;86.40;;;;;;4973449;28;20367;-46
2022/09/15 01:54:48;;;;;;;7.10;1.23;;;14.20;87.10;;;;;;4981430;28;20049;-44
2022/09/15 01:57:22;;;;;;;9.10;1.85;;;14.20;86.70;;;;;;5008183;28;20451;-44
2022/09/15 01:59:49;;;;;;;8.13;1.45;;;14.30;86.40;;;;;;4992887;28;20103;-43
2022/09/15 02:02:24;;;;;;;7.38;1.48;;;14.30;86.50;;;;;;4991332;28;20827;-44
2022/09/15 02:04:54;;;;;;;7.72;1.27;;;14.20;86.00;;;;;;4973291;28;20027;-43
2022/09/15 02:07:19;;;;;;;;;;;14.20;85.80;;;;;;4973016;28;20026;-43
2022/09/15 02:09:48;;;;;;;5.85;1.15;;;14.20;85.10;;;;;;4974030;28;20358;-46
2022/09/15 02:12:32;;;;;;;9.40;1.40;;;14.20;85.40;;;;;;4973673;28;20038;-44
2022/09/15 02:15:06;;;;;;;8.47;2.07;;;14.20;85.70;;;;;;4973401;28;20035;-44
2022/09/15 02:17:37;;;;;;;5.57;1.40;;;14.20;85.80;;;;;;4976671;28;20077;-43
2022/09/15 02:20:37;;;;;;;8.70;1.48;;;14.10;85.50;;;;;;4973089;28;20027;-43
2022/09/15 02:23:11;;;;;;;5.47;0.95;;;14.10;85.00;;;;;;4972404;28;20499;-44
2022/09/15 02:25:42;;;;;;;6.28;0.90;;;14.00;84.40;;;;;;4988454;28;20030;-45
2022/09/15 02:28:10;;;;;;;11.82;2.03;;;14.10;83.70;;;;;;4992224;28;20374;-43
2022/09/15 02:30:41;;;;;;;10.30;1.63;;;14.10;83.30;;;;;;4992481;28;20371;-44
2022/09/15 02:33:12;;;;;;;7.25;2.05;;;14.10;84.30;;;;;;4986067;28;20030;-44
2022/09/15 02:35:40;;;;;;;14.27;1.83;;;14.10;85.00;;;;;;4972141;28;20037;-48
2022/09/15 02:38:11;;;;;;;13.00;2.03;;;14.10;85.50;;;;;;4973435;28;20030;-48
2022/09/15 02:40:40;;;;;;;9.95;1.73;;;14.00;86.10;;;;;;4972694;28;20042;-48
2022/09/15 02:43:09;;;;;;;;;;;13.90;85.70;;;;;;4979645;28;20030;-42
2022/09/15 02:45:34;;;;;;;12.68;2.00;;;13.90;85.50;;;;;;5007656;28;19945;-46
2022/09/15 02:48:00;;;;;;;9.48;1.70;;;13.90;84.80;;;;;;4990069;28;20023;-45
2022/09/15 02:50:26;;;;;;;5.80;1.23;;;13.90;84.30;;;;;;4992047;28;20047;-46
2022/09/15 02:52:53;;;;;;;8.50;1.45;;;13.90;84.20;;;;;;5007680;28;20057;-44
2022/09/15 02:55:18;;;;;;;11.07;1.63;;;13.80;83.90;;;;;;4991536;28;20147;-45
2022/09/15 02:57:44;;;;;;;6.05;1.30;;;13.80;83.60;;;;;;4991950;28;20034;-45
2022/09/15 03:00:13;;;;;;;11.32;1.48;;;13.80;83.20;;;;;;4992209;28;20050;-43
2022/09/15 03:02:44;;;;;;;6.78;1.35;;;13.80;83.10;;;;;;4991299;28;20042;-46
2022/09/15 03:05:12;;;;;;;8.15;1.58;;;13.80;82.50;;;;;;4974508;28;20035;-44
2022/09/15 03:07:37;;;;;;;8.63;1.25;;;13.80;82.80;;;;;;4971690;28;20027;-44
2022/09/15 03:10:05;;;;;;;10.38;1.90;;;13.90;83.10;;;;;;4972624;28;20046;-46
2022/09/15 03:12:45;;;;;;;6.53;2.17;;;13.90;83.20;;;;;;4972110;28;20093;-44
2022/09/15 03:15:12;;;;;;;6.32;1.17;;;13.80;83.20;;;;;;4972348;28;20041;-43
2022/09/15 03:17:42;;;;;;;6.97;1.52;;;13.90;83.10;;;;;;4972195;28;20065;-43
2022/09/15 03:20:11;;;;;;;;;;;13.90;83.50;;;;;;4974690;28;20412;-43
2022/09/15 03:22:37;;;;;;;7.15;1.35;;;13.90;83.70;;;;;;4972574;28;20327;-45
2022/09/15 03:25:06;;;;;;;8.45;1.33;;;13.90;83.40;;;;;;4976789;28;20046;-45
2022/09/15 03:27:33;;;;;;;6.20;1.08;;;13.90;83.50;;;;;;4991684;28;20026;-42
2022/09/15 03:29:59;;;;;;;6.10;1.00;;;13.90;83.70;;;;;;5007008;28;20049;-43
2022/09/15 03:32:25;;;;;;;5.47;1.20;;;13.90;83.70;;;;;;4991229;28;20436;-44
2022/09/15 03:34:50;;;;;;;6.65;1.10;;;13.90;83.60;;;;;;5005601;28;20026;-44
2022/09/15 03:37:16;;;;;;;7.35;1.70;;;13.90;83.80;;;;;;4990999;28;20398;-43
2022/09/15 03:39:42;;;;;;;10.77;1.83;;;13.90;83.90;;;;;;5005894;28;20499;-44
2022/09/15 03:42:07;;;;;;;6.25;1.30;;;13.90;83.60;;;;;;4991472;28;20079;-44
2022/09/15 03:44:34;;;;;;;6.15;1.40;;;13.90;83.40;;;;;;5002169;28;20031;-44
2022/09/15 03:47:00;;;;;;;9.77;1.85;;;13.90;82.60;;;;;;4971832;28;20048;-42
2022/09/15 03:49:25;;;;;;;7.18;1.45;;;13.90;82.00;;;;;;4973589;28;20456;-43
2022/09/15 03:51:51;;;;;;;7.63;1.50;;;13.90;81.80;;;;;;4971429;28;20037;-44
2022/09/15 03:54:17;;;;;;;4.57;1.48;;;14.00;82.00;;;;;;4969742;28;20146;-45
2022/09/15 03:56:46;;;;;;;5.55;0.98;;;13.90;81.40;;;;;;4984968;28;20056;-43
2022/09/15 03:59:12;;;;;;;6.13;1.20;;;14.00;81.60;;;;;;4990896;28;20489;-43
2022/09/15 04:01:40;;;;;;;5.32;1.20;;;14.00;80.80;;;;;;4990882;28;20034;-44
2022/09/15 04:04:06;;;;;;;5.75;1.20;;;14.00;77.70;;;;;;4986948;28;20356;-44
2022/09/15 04:06:32;;;;;;;6.53;1.23;;;14.10;77.60;;;;;;4970856;28;20109;-43
2022/09/15 04:09:01;;;;;;;7.80;1.23;;;14.20;77.20;;;;;;4971168;28;20098;-45
2022/09/15 04:11:30;;;;;;;5.45;0.90;;;14.20;77.40;;;;;;4970530;28;20030;-44
2022/09/15 04:13:55;;;;;;;5.82;1.30;;;14.20;77.80;;;;;;4971195;28;20058;-43
2022/09/15 04:16:23;;;;;;;4.00;1.08;;;14.20;78.10;;;;;;4971337;28;20039;-44
2022/09/15 04:18:50;;;;;;;5.60;1.45;;;14.20;78.50;;;;;;4972083;28;20065;-44
2022/09/15 04:21:25;;;;;;;9.43;1.40;;;14.20;79.50;;;;;;4989568;28;20050;-43
2022/09/15 04:23:52;;;;;;;7.93;1.25;;;14.10;78.90;;;;;;4989066;28;20205;-44
2022/09/15 04:26:18;;;;;;;3.90;0.98;;;14.00;78.20;;;;;;4988745;28;20032;-44
2022/09/15 04:28:44;;;;;;;7.72;1.27;;;14.10;78.70;;;;;;5004855;28;20117;-44
2022/09/15 04:31:14;;;;;;;3.45;0.82;;;14.10;78.50;;;;;;4989733;28;20026;-45
2022/09/15 04:33:41;;;;;;;3.25;0.63;;;14.10;76.60;;;;;;4989520;28;20026;-44
2022/09/15 04:36:13;;;;;;;4.15;0.73;;;14.10;76.70;;;;;;4973425;28;20034;-45
2022/09/15 04:38:42;;;;;;;3.85;1.45;;;14.00;76.60;;;;;;4969416;28;20018;-46
2022/09/15 04:41:09;;;;;;;7.15;0.95;;;14.00;77.90;;;;;;4970574;28;20055;-47
2022/09/15 04:43:36;;;;;;;6.70;1.10;;;13.90;78.40;;;;;;4971114;28;20093;-44
2022/09/15 04:46:03;;;;;;;3.28;0.95;;;14.00;78.60;;;;;;4970833;28;20479;-47
2022/09/15 04:48:30;;;;;;;5.13;0.90;;;13.90;78.50;;;;;;5004001;28;20058;-45
2022/09/15 04:51:04;;;;;;;4.35;1.20;;;13.90;78.60;;;;;;4982873;28;20388;-44
2022/09/15 04:53:31;;;;;;;5.85;1.25;;;13.90;78.50;;;;;;4981767;28;20096;-45
2022/09/15 04:56:10;;;;;;;4.80;1.48;;;13.90;79.00;;;;;;4999845;28;20089;-49
2022/09/15 04:58:54;;;;;;;6.55;1.58;;;13.90;79.10;;;;;;4991180;28;20026;-44
2022/09/15 05:01:23;;;;;;;6.97;1.40;;;13.90;79.60;;;;;;4992595;28;20097;-45
2022/09/15 05:03:50;;;;;;;;;;;13.90;80.30;;;;;;4990735;28;20030;-45
2022/09/15 05:06:20;;;;;;;4.78;1.13;;;13.80;80.70;;;;;;4996695;28;20326;-43
2022/09/15 05:08:48;;;;;;;;;;;13.80;81.10;;;;;;4999935;28;20093;-45
2022/09/15 05:11:15;;;;;;;7.22;1.75;;;13.80;81.50;;;;;;4992703;28;19996;-44
2022/09/15 05:13:42;;;;;;;7.10;1.65;;;13.70;82.10;;;;;;4987697;28;20071;-44
2022/09/15 05:16:19;;;;;;;7.28;1.52;;;13.70;82.30;;;;;;4986198;28;20478;-45
2022/09/15 05:18:47;;;;;;;6.57;1.58;;;13.70;82.20;;;;;;4977978;28;20023;-46
2022/09/15 05:21:15;;;;;;;10.18;1.45;;;13.70;82.50;;;;;;4980771;28;20031;-46
2022/09/15 05:23:42;;;;;;;10.30;1.67;;;13.70;82.60;;;;;;4994245;28;20022;-44
2022/09/15 05:26:12;;;;;;;5.55;1.48;;;13.60;82.60;;;;;;4987936;28;20022;-45
2022/09/15 05:28:39;;;;;;;;;;;13.60;82.30;;;;;;4988690;28;20038;-45
2022/09/15 05:31:18;;;;;;;4.90;1.30;;;13.60;82.20;;;;;;4981197;28;19917;-46
2022/09/15 05:33:47;;;;;;;8.32;1.40;;;13.60;81.80;;;;;;4986666;28;20521;-46
2022/09/15 05:36:16;;;;;;;7.90;1.35;;;13.60;81.50;;;;;;4986029;28;20026;-45
2022/09/15 05:38:43;;;;;;;4.68;1.08;;;13.70;81.40;;;;;;4989202;28;20098;-47
2022/09/15 05:41:15;;;;;;;7.55;1.48;;;13.70;81.60;;;;;;4987196;28;20026;-47
2022/09/15 05:43:41;;;;;;;8.57;1.38;;;13.70;80.80;;;;;;4981826;28;20054;-44
2022/09/15 05:46:09;;;;;;;3.92;1.00;;;13.70;80.20;;;;;;4978459;28;20554;-46
2022/09/15 05:48:36;;;;;;;6.10;1.00;;;13.80;80.30;;;;;;4974032;28;20030;-47
2022/09/15 05:51:03;;;;;;;7.97;1.95;;;13.80;80.50;;;;;;4977361;28;20034;-50
2022/09/15 05:53:33;;;;;;;6.78;1.00;;;13.90;79.90;;;;;;4995938;28;20113;-47
2022/09/15 05:56:06;;;;;;;6.13;1.92;;;13.90;80.00;;;;;;4977552;28;20485;-46
2022/09/15 05:58:33;;;;;;;6.95;1.40;;;13.90;80.50;;;;;;4982066;28;20057;-43
2022/09/15 06:01:17;;;;;;;4.50;0.98;;;13.90;80.70;;;;;;4982186;28;20583;-49
2022/09/15 06:03:43;;;;;;;7.20;2.35;;;14.00;81.20;;;;;;4973559;28;20098;-44
2022/09/15 06:06:11;;;;;;;9.32;1.60;;;14.00;81.60;;;;;;4983169;28;20116;-44
2022/09/15 06:08:42;;;;;;;7.32;1.15;;;14.00;81.90;;;;;;4979892;28;20031;-45
2022/09/15 06:11:14;;;;;;;4.63;1.35;;;14.10;82.20;;;;;;4984748;28;20045;-45
2022/09/15 06:13:42;;;;;;;10.68;2.45;;;14.20;82.30;;;;;;4984182;28;20066;-44
2022/09/15 06:16:11;;;;;;;6.75;1.20;;;14.20;82.40;;;;;;4984749;28;20387;-47
2022/09/15 06:18:39;;;;;;;6.35;1.35;;;14.10;82.00;;;;;;4994512;28;20104;-46
2022/09/15 06:21:25;;;;;;;6.43;1.67;;;14.10;82.60;;;;;;4982231;28;20066;-51
2022/09/15 06:23:57;;;;;;;6.07;1.20;;;14.00;83.60;;;;;;5000067;28;20023;-51
2022/09/15 06:26:26;;;;;;;5.97;1.67;;;13.90;84.40;;;;;;4991516;28;20026;-50
2022/09/15 06:28:54;;;;;;;7.53;1.75;;;13.90;84.90;;;;;;4990865;28;20419;-51
2022/09/15 06:31:22;;;;;;;7.20;1.35;;;13.90;85.40;;;;;;4982219;28;20031;-48
2022/09/15 06:33:52;;;;;;;5.72;1.15;;;13.90;85.50;;;;;;4981738;28;20386;-48
2022/09/15 06:36:21;;;;;;;3.95;1.10;;;13.90;85.50;;;;;;4978387;28;20459;-48
2022/09/15 06:38:48;;;;;;;9.80;1.48;;;13.90;85.70;;;;;;4986498;28;20030;-49
2022/09/15 06:41:15;;;;;;;5.30;1.05;;;13.90;85.70;;;;;;4991037;28;20026;-49
2022/09/15 06:43:42;;;;;;;3.85;0.82;;;14.00;85.90;;;;;;4988269;28;20093;-47
2022/09/15 06:46:19;;;;;;;8.23;1.80;;;14.20;86.10;;;;;;5002426;28;20053;-46
2022/09/15 06:48:46;;;;;;;8.05;2.00;;;14.20;85.60;;;;;;4991558;28;20026;-47
2022/09/15 06:51:15;;;;;;;8.98;1.80;;;14.20;85.50;;;;;;4987660;28;20121;-56
2022/09/15 06:53:42;;;;;;;10.23;1.85;;;14.20;85.50;;;;;;4983201;28;20037;-57
2022/09/15 06:56:13;;;;;;;7.88;2.20;;;14.20;85.50;;;;;;4984423;28;20065;-58
2022/09/15 06:58:40;;;;;;;11.23;2.63;;;14.20;86.40;;;;;;4987249;28;20105;-66
2022/09/15 07:01:13;;;;;;;10.00;2.50;;;14.20;86.70;;;;;;5000011;28;20144;-64
2022/09/15 07:03:41;;;;;;;7.97;2.45;;;14.00;87.70;;;;;;4988157;28;20533;-66
2022/09/15 07:06:10;;;;;;;10.90;2.03;;;13.90;88.40;;;;;;4984725;28;20030;-61
2022/09/15 07:08:37;;;;;;;6.65;1.40;;;13.80;88.60;;;;;;4981387;28;20106;-59
2022/09/15 07:11:05;;;;;;;9.25;2.22;;;13.60;88.90;;;;;;4975712;28;20043;-56
2022/09/15 07:13:30;;;;;;;8.13;1.85;;;13.60;89.20;;;;;;4986086;28;20561;-55
2022/09/15 07:16:00;;;;;;;8.07;1.23;;;13.60;89.10;;;;;;4986738;28;20065;-53
2022/09/15 07:18:26;;;;;;;7.43;1.95;;;13.60;88.70;;;;;;4988524;28;20026;-52
2022/09/15 07:21:01;;;;;;;2.60;0.82;;;13.50;87.80;;;;;;4984784;28;20037;-51
2022/09/15 07:23:29;;;;;;;4.50;1.35;;;13.60;87.50;;;;;;4985319;28;20128;-51
2022/09/15 07:26:13;;;;;;;5.38;1.08;;;13.90;87.50;;;;;;5005459;28;20062;-53
2022/09/15 07:28:40;;;;;;;4.20;0.70;;;13.90;86.80;;;;;;4989004;28;20054;-52
2022/09/15 07:31:09;;;;;;;3.40;0.90;;;13.90;85.90;;;;;;4998304;28;20085;-49
2022/09/15 07:33:35;;;;;;;6.82;1.17;;;14.00;85.90;;;;;;4989911;28;20415;-51
2022/09/15 07:36:02;;;;;;;3.55;0.70;;;14.20;85.80;;;;;;4989788;28;20049;-48
2022/09/15 07:38:29;;;;;;;8.82;1.77;;;14.40;85.90;;;;;;4999870;28;20065;-48
2022/09/15 07:41:00;;;;;;;5.95;1.75;;;14.60;85.50;;;;;;4991203;28;20041;-47
2022/09/15 07:43:28;;;;;;;3.28;1.10;;;14.70;85.10;;;;;;4989943;28;20106;-46
2022/09/15 07:45:57;;;;;;;5.22;1.30;;;14.90;85.60;;;;;;4988408;28;20409;-48
2022/09/15 07:48:22;;;;;;;8.18;1.63;;;15.00;85.10;;;;;;4989045;28;20055;-47
2022/09/15 07:50:48;;;;;;;11.25;2.10;;;15.10;85.30;;;;;;4976927;28;20050;-46
2022/09/15 07:53:16;;;;;;;8.00;1.67;;;15.20;84.40;;;;;;4983526;28;20042;-45
2022/09/15 07:55:42;;;;;;;5.68;1.40;;;15.40;84.80;;;;;;4988999;28;20114;-48
2022/09/15 07:58:08;;;;;;;5.20;1.00;;;15.30;83.20;;;;;;4983359;28;20105;-48
2022/09/15 08:00:39;;;;;;;5.88;1.10;;;15.40;82.70;;;;;;5000961;28;20502;-46
2022/09/15 08:03:07;;;;;;;5.85;1.40;;;15.40;82.30;;;;;;4989139;28;20105;-46
2022/09/15 08:05:32;;;;;;;4.63;1.17;;;15.40;81.80;;;;;;4986260;28;20411;-47
2022/09/15 08:07:59;;;;;;;6.45;1.70;;;15.50;80.80;;;;;;4977031;28;20093;-48
2022/09/15 08:10:26;;;;;;;7.63;1.52;;;15.60;80.40;;;;;;4980083;28;20026;-43
2022/09/15 08:12:53;;;;;;;6.45;1.20;;;15.70;79.50;;;;;;4985915;28;20124;-48
2022/09/15 08:15:22;;;;;;;5.72;1.42;;;15.60;79.20;;;;;;4988825;28;20050;-44
2022/09/15 08:17:49;;;;;;;7.07;1.73;;;15.60;80.00;;;;;;5002827;28;20030;-48
2022/09/15 08:20:16;;;;;;;7.15;1.58;;;15.40;81.40;;;;;;5003399;28;20085;-46
2022/09/15 08:22:44;;;;;;;9.85;1.73;;;15.30;82.30;;;;;;4983443;28;20027;-45
2022/09/15 08:25:11;;;;;;;7.38;1.95;;;15.10;82.30;;;;;;4984969;28;20463;-48
2022/09/15 08:27:38;;;;;;;11.15;3.58;;;15.00;81.80;;;;;;4976489;28;20065;-43
2022/09/15 08:30:08;;;;;;;20.13;9.48;;;15.40;82.10;;;;;;4986520;28;20490;-43
2022/09/15 08:32:38;;;;;;;7.07;1.77;;;16.00;80.80;;;;;;4996893;28;20419;-45
2022/09/15 08:35:06;;;;;;;15.10;7.38;;;16.50;79.60;;;;;;4988575;28;20038;-45
2022/09/15 08:37:33;;;;;;;9.75;1.10;;;17.00;78.80;;;;;;4986720;28;20470;-46
2022/09/15 08:40:00;;;;;;;3.80;1.48;;;17.40;75.40;;;;;;4991467;28;20037;-45
2022/09/15 08:42:29;;;;;;;8.07;1.85;;;17.60;72.70;;;;;;4992454;28;20023;-46
2022/09/15 08:45:11;;;;;;;3.95;0.98;;;17.80;70.40;;;;;;4984834;28;20056;-48
2022/09/15 08:47:46;;;;;;;6.70;1.52;;;18.00;71.80;;;;;;4981582;28;20026;-47
2022/09/15 08:50:33;;;;;;;8.43;2.17;;;18.20;70.30;;;;;;4993520;28;20033;-48
2022/09/15 08:53:11;;;;;;;3.55;1.50;;;18.50;73.40;;;;;;4976875;28;20033;-46
2022/09/15 08:55:51;;;;;;;7.00;1.45;;;17.90;70.70;;;;;;4980052;28;20305;-46
2022/09/15 08:58:36;;;;;;;3.58;1.13;;;17.30;72.10;;;;;;4980407;28;20063;-48
2022/09/15 09:01:20;;;;;;;6.63;1.63;;;17.00;72.30;;;;;;4980779;28;20079;-45
2022/09/15 09:04:15;;;;;;;7.15;1.88;;;16.90;72.70;;;;;;4992197;28;20030;-46
2022/09/15 09:07:08;;;;;;;8.38;1.77;;;16.60;71.70;;;;;;4993815;28;20093;-46
2022/09/15 09:09:48;;;;;;;6.03;1.13;;;16.70;72.90;;;;;;4988024;28;20731;-48
2022/09/15 09:12:36;;;;;;;3.63;1.27;;;16.90;72.30;;;;;;5003925;28;20038;-47
2022/09/15 09:15:23;;;;;;;5.53;0.98;;;17.00;72.80;;;;;;5003165;28;20367;-47
2022/09/15 09:18:26;;;;;;;6.70;2.00;;;17.10;69.30;;;;;;4986995;28;20043;-48
2022/09/15 09:21:13;;;;;;;4.85;1.05;;;17.00;70.80;;;;;;4990054;28;20074;-48
2022/09/15 09:24:09;;;;;;;4.68;1.35;;;17.00;70.80;;;;;;4986201;28;20480;-46
2022/09/15 09:26:36;;;;;;;4.30;0.88;;;16.90;71.80;;;;;;4987381;28;20519;-46
2022/09/15 09:29:37;;;;;;;8.07;1.83;;;17.10;70.30;;;;;;4985069;28;20517;-48
2022/09/15 09:32:14;;;;;;;6.68;1.60;;;17.50;69.10;;;;;;4987231;28;20038;-46
2022/09/15 09:34:50;;;;;;;5.43;1.15;;;17.60;69.80;;;;;;4988246;28;20069;-48
2022/09/15 09:37:17;;;;;;;6.05;1.23;;;17.30;70.80;;;;;;4989499;28;20026;-46
2022/09/15 09:39:45;;;;;;;3.85;0.93;;;16.80;72.80;;;;;;4979429;28;20026;-52
2022/09/15 09:42:14;;;;;;;7.72;1.10;;;16.40;76.10;;;;;;4963100;28;20097;-55
2022/09/15 09:44:40;;;;;;;6.53;0.80;;;16.20;79.10;;;;;;4984983;28;20054;-55
2022/09/15 09:47:07;;;;;;;5.45;1.25;;;15.90;79.90;;;;;;4983993;28;20072;-50
2022/09/15 09:49:47;;;;;;;4.50;2.20;;;15.70;80.10;;;;;;4985447;28;20018;-49
2022/09/15 09:52:33;;;;;;;8.32;1.98;;;15.70;81.40;;;;;;4990738;28;20022;-55
2022/09/15 09:55:22;;;;;;;5.60;1.25;;;15.50;82.80;;;;;;5005716;28;20062;-56
2022/09/15 09:57:50;;;;;;;;;;;15.40;83.50;;;;;;4990997;28;20096;-51
2022/09/15 10:00:36;;;;;;;8.15;2.00;;;15.60;84.20;;;;;;4987170;28;20344;-48
2022/09/15 10:03:19;;;;;;;5.30;1.00;;;16.00;84.40;;;;;;4989961;28;20038;-48
2022/09/15 10:05:59;;;;;;;6.18;1.67;;;16.20;82.50;;;;;;4974993;28;20030;-60
2022/09/15 10:08:25;;;;;;;7.00;1.75;;;15.90;82.00;;;;;;4979350;28;20027;-63
2022/09/15 10:10:58;;;;;;;7.20;2.05;;;15.60;83.50;;;;;;4990124;28;20027;-65
2022/09/15 10:13:26;;;;;;;7.82;1.48;;;15.30;84.60;;;;;;4989854;28;20038;-64
2022/09/15 10:16:00;;;;;;;7.13;1.60;;;15.00;84.90;;;;;;4977423;28;20045;-62
2022/09/15 10:18:45;;;;;;;4.80;1.33;;;14.90;85.70;;;;;;4988987;28;20033;-57
2022/09/15 10:21:14;;;;;;;4.95;1.10;;;14.60;85.80;;;;;;4990503;28;20065;-61
2022/09/15 10:23:42;;;;;;;3.33;1.50;;;14.60;86.80;;;;;;4981241;28;20073;-58
2022/09/15 10:26:32;;;;;;;3.83;1.42;;;14.60;86.60;;;;;;4990962;28;20027;-55
2022/09/15 10:29:17;;;;;;;6.50;1.20;;;14.70;86.60;;;;;;4998707;28;20032;-52
2022/09/15 10:31:45;;;;;;;7.10;1.10;;;14.90;86.70;;;;;;4975480;28;20034;-50
2022/09/15 10:34:27;;;;;;;6.57;1.48;;;15.10;86.70;;;;;;4988583;28;20034;-49
2022/09/15 10:37:30;;;;;;;6.40;2.53;;;15.10;84.80;;;;;;5001071;28;20034;-48
2022/09/15 10:40:01;;;;;;;7.10;1.30;;;15.50;85.90;;;;;;4980936;28;20031;-49
2022/09/15 10:42:50;;;;;;;7.90;1.60;;;15.90;85.90;;;;;;5005957;28;20430;-46
2022/09/15 10:45:45;;;;;;;4.65;1.65;;;16.40;85.90;;;;;;4990699;28;20053;-46
2022/09/15 10:48:17;;;;;;;7.47;1.58;;;16.40;83.20;;;;;;4977412;28;20030;-46
2022/09/15 10:51:01;;;;;;;6.47;1.38;;;16.20;79.40;;;;;;4980483;28;20026;-46
2022/09/15 10:53:55;;;;;;;6.40;0.98;;;16.10;79.50;;;;;;4981084;28;20041;-44
2022/09/15 10:56:35;;;;;;;3.85;1.15;;;16.00;80.00;;;;;;4984850;28;20062;-44
2022/09/15 10:59:04;;;;;;;6.03;1.27;;;15.90;77.20;;;;;;4992557;28;20038;-46
2022/09/15 11:01:32;;;;;;;9.50;1.67;;;15.80;77.50;;;;;;5000029;28;20348;-48
2022/09/15 11:04:29;;;;;;;4.32;0.90;;;15.90;77.90;;;;;;4978883;28;20023;-45
2022/09/15 11:07:34;;;;;;;7.35;1.48;;;16.10;78.00;;;;;;4978573;28;20490;-46
2022/09/15 11:10:50;;;;;;;2.78;1.00;;;16.00;76.80;;;;;;4977108;28;20046;-47
2022/09/15 11:13:49;;;;;;;5.85;1.02;;;16.10;77.00;;;;;;4965980;28;20046;-47
2022/09/15 11:16:34;;;;;;;;;;;16.30;77.20;;;;;;5005673;28;20038;-46
2022/09/15 11:19:26;;;;;;;3.38;1.10;;;16.50;78.50;;;;;;4989230;28;19909;-47
2022/09/15 11:22:06;;;;;;;5.07;1.05;;;16.80;76.90;;;;;;5005494;28;20459;-44
2022/09/15 11:24:59;;;;;;;4.85;1.20;;;17.10;77.10;;;;;;4987444;28;20105;-46
2022/09/15 11:27:41;;;;;;;10.02;1.08;;;17.50;76.30;;;;;;4986448;28;20127;-63
2022/09/15 11:30:19;;;;;;;6.43;1.85;;;17.00;77.10;;;;;;4990601;28;20043;-58
2022/09/15 11:33:01;;;;;;;8.32;1.58;;;16.50;80.20;;;;;;4988348;28;20117;-56
2022/09/15 11:35:52;;;;;;;5.20;1.20;;;15.90;78.60;;;;;;4979103;28;20038;-54
2022/09/15 11:38:36;;;;;;;5.35;1.35;;;15.90;80.70;;;;;;4983498;28;20403;-52
2022/09/15 11:41:11;;;;;;;5.82;1.35;;;16.10;81.70;;;;;;4987846;28;20030;-49
2022/09/15 11:44:17;;;;;;;3.10;1.40;;;16.10;79.90;;;;;;4993061;28;20045;-49
2022/09/15 11:47:11;;;;;;;9.07;1.27;;;16.20;78.30;;;;;;4984288;28;20054;-46
2022/09/15 11:49:45;;;;;;;4.50;1.05;;;16.00;75.80;;;;;;4987969;28;20155;-48
2022/09/15 11:52:23;;;;;;;6.40;1.10;;;16.10;75.80;;;;;;4981331;28;20044;-48
2022/09/15 11:54:55;;;;;;;5.65;1.90;;;16.10;76.30;;;;;;4997480;28;20045;-47
2022/09/15 11:57:38;;;;;;;4.60;0.77;;;16.10;76.80;;;;;;5001730;28;20026;-47
2022/09/15 12:00:10;;;;;;;8.50;1.15;;;16.20;75.80;;;;;;4982744;28;20041;-48
2022/09/15 12:03:08;;;;;;;6.43;1.50;;;16.40;74.40;;;;;;4988746;28;20028;-48
2022/09/15 12:05:55;;;;;;;3.47;1.17;;;16.60;74.70;;;;;;4993210;28;20045;-47
2022/09/15 12:08:40;;;;;;;5.25;1.10;;;16.90;74.50;;;;;;4988810;28;20018;-50
2022/09/15 12:11:14;;;;;;;6.15;1.40;;;16.90;73.00;;;;;;5001105;28;20026;-47
2022/09/15 12:13:43;;;;;;;11.85;2.78;;;16.90;74.00;;;;;;4987319;28;20149;-46
2022/09/15 12:16:09;;;;;;;4.38;1.35;;;17.00;71.90;;;;;;4988263;28;20105;-46
2022/09/15 12:18:56;;;;;;;7.18;1.63;;;17.00;69.80;;;;;;4988638;28;20105;-46
2022/09/15 12:21:42;;;;;;;4.47;1.10;;;16.50;70.20;;;;;;5000728;28;20046;-48
2022/09/15 12:24:08;;;;;;;6.70;1.45;;;16.40;71.80;;;;;;4987250;28;20080;-48
2022/09/15 12:26:34;;;;;;;5.85;0.93;;;16.50;72.50;;;;;;4983224;28;20451;-47
2022/09/15 12:29:22;;;;;;;8.25;1.20;;;16.90;72.60;;;;;;4986275;28;20400;-47
2022/09/15 12:31:50;;;;;;;6.95;1.13;;;17.40;69.30;;;;;;4989406;28;20034;-49
2022/09/15 12:34:24;;;;;;;6.22;1.45;;;17.20;67.30;;;;;;4989130;28;20507;-49
2022/09/15 12:36:54;;;;;;;4.45;1.30;;;16.90;68.20;;;;;;4988890;28;20034;-47
2022/09/15 12:39:40;;;;;;;3.63;1.17;;;16.40;67.40;;;;;;4988358;28;20081;-45
2022/09/15 12:42:19;;;;;;;3.10;1.00;;;16.20;68.70;;;;;;5004614;28;20443;-46
2022/09/15 12:44:56;;;;;;;5.00;0.93;;;16.10;68.70;;;;;;4989162;28;20045;-49
2022/09/15 12:47:40;;;;;;;4.53;1.58;;;15.90;71.60;;;;;;4987950;28;20046;-55
2022/09/15 12:50:18;;;;;;;3.33;1.30;;;15.60;74.80;;;;;;4988120;28;20034;-61
2022/09/15 12:53:16;;;;;;;6.65;1.40;;;15.40;74.90;;;;;;4988980;28;20497;-59
2022/09/15 12:55:58;;;;;;;4.30;1.35;;;15.40;75.60;;;;;;4980250;28;20108;-54
2022/09/15 12:58:35;;;;;;;2.60;0.88;;;15.40;76.80;;;;;;5003674;28;20026;-53
2022/09/15 13:01:23;;;;;;;4.68;1.20;;;15.50;76.90;;;;;;4984590;28;20018;-52
2022/09/15 13:03:48;;;;;;;3.25;0.75;;;15.60;77.90;;;;;;4983270;28;20498;-53
2022/09/15 13:06:24;;;;;;;5.20;1.40;;;15.70;77.80;;;;;;4987319;28;20030;-50
2022/09/15 13:08:52;;;;;;;6.05;0.82;;;15.70;77.40;;;;;;4986825;28;20450;-50
2022/09/15 13:11:35;;;;;;;6.63;1.38;;;16.00;78.70;;;;;;4969530;28;20402;-50
2022/09/15 13:14:07;;;;;;;7.78;1.42;;;16.10;77.90;;;;;;4979093;28;20030;-47
2022/09/15 13:17:00;;;;;;;5.57;1.33;;;15.80;78.30;;;;;;4972031;28;20072;-68
2022/09/15 13:19:41;;;;;;;9.02;1.88;;;15.40;79.50;;;;;;4988291;28;20105;-64
2022/09/15 13:22:28;;;;;;;7.38;1.27;;;15.00;82.10;;;;;;4987762;28;20498;-65